sensor_id;sensor_type;location;lat;lon;timestamp;P1;durP1;ratioP1;P2;durP2;ratioP2
4186;SDS011;2107;52.306;10.484;2024-01-30T00:01:38;0.00;;;0.00;;
4186;SDS011;2107;52.306;10.484;2024-01-30T00:04:05;0.00;;;0.00;;
4186;SDS011;2107;52.306;10.484;2024-01-30T00:06:33;0.10;;;0.10;;
4186;SDS011;2107;52.306;10.484;2024-01-30T00:09:00;0.10;;;0.10;;
4186;SDS011;2107;52.306;10.484;2024-01-30T00:11:27;0.10;;;0.10;;
4186;SDS011;2107;52.306;10.484;2024-01-30T00:13:54;0.10;;;0.10;;
4186;SDS011;2107;52.306;10.484;2024-01-30T00:16:21;0.10;;;0.10;;
4186;SDS011;2107;52.306;10.484;2024-01-30T00:18:49;0.00;;;0.00;;
4186;SDS011;2107;52.306;10.484;2024-01-30T00:21:16;0.00;;;0.00;;
4186;SDS011;2107;52.306;10.484;2024-01-30T00:23:44;0.00;;;0.00;;
4186;SDS011;2107;52.306;10.484;2024-01-30T00:26:11;0.00;;;0.00;;
4186;SDS011;2107;52.306;10.484;2024-01-30T00:28:41;0.00;;;0.00;;
4186;SDS011;2107;52.306;10.484;2024-01-30T00:31:07;0.00;;;0.00;;
4186;SDS011;2107;52.306;10.484;2024-01-30T00:33:37;0.00;;;0.00;;
4186;SDS011;2107;52.306;10.484;2024-01-30T00:36:04;0.00;;;0.00;;
4186;SDS011;2107;52.306;10.484;2024-01-30T00:38:32;0.00;;;0.00;;
4186;SDS011;2107;52.306;10.484;2024-01-30T00:41:00;0.00;;;0.00;;
4186;SDS011;2107;52.306;10.484;2024-01-30T00:43:27;0.00;;;0.00;;
4186;SDS011;2107;52.306;10.484;2024-01-30T00:45:54;0.00;;;0.00;;
4186;SDS011;2107;52.306;10.484;2024-01-30T00:48:21;0.00;;;0.00;;
4186;SDS011;2107;52.306;10.484;2024-01-30T00:50:48;0.00;;;0.00;;
4186;SDS011;2107;52.306;10.484;2024-01-30T00:53:15;0.00;;;0.00;;
4186;SDS011;2107;52.306;10.484;2024-01-30T00:55:43;0.00;;;0.00;;
4186;SDS011;2107;52.306;10.484;2024-01-30T00:58:11;0.00;;;0.00;;
4186;SDS011;2107;52.306;10.484;2024-01-30T01:00:38;0.00;;;0.00;;
4186;SDS011;2107;52.306;10.484;2024-01-30T01:03:05;0.00;;;0.00;;
4186;SDS011;2107;52.306;10.484;2024-01-30T01:05:32;0.00;;;0.00;;
4186;SDS011;2107;52.306;10.484;2024-01-30T01:07:59;0.00;;;0.00;;
4186;SDS011;2107;52.306;10.484;2024-01-30T01:10:26;0.00;;;0.00;;
4186;SDS011;2107;52.306;10.484;2024-01-30T01:12:53;0.00;;;0.00;;
4186;SDS011;2107;52.306;10.484;2024-01-30T01:15:22;0.00;;;0.00;;
4186;SDS011;2107;52.306;10.484;2024-01-30T01:17:49;0.00;;;0.00;;
4186;SDS011;2107;52.306;10.484;2024-01-30T01:20:16;0.00;;;0.00;;
4186;SDS011;2107;52.306;10.484;2024-01-30T01:22:42;0.00;;;0.00;;
4186;SDS011;2107;52.306;10.484;2024-01-30T01:25:09;0.00;;;0.00;;
4186;SDS011;2107;52.306;10.484;2024-01-30T01:27:36;0.00;;;0.00;;
4186;SDS011;2107;52.306;10.484;2024-01-30T01:30:07;0.00;;;0.00;;
4186;SDS011;2107;52.306;10.484;2024-01-30T01:32:36;0.00;;;0.00;;
4186;SDS011;2107;52.306;10.484;2024-01-30T01:35:09;0.00;;;0.00;;
4186;SDS011;2107;52.306;10.484;2024-01-30T01:37:36;0.00;;;0.00;;
4186;SDS011;2107;52.306;10.484;2024-01-30T01:40:04;0.00;;;0.00;;
4186;SDS011;2107;52.306;10.484;2024-01-30T01:42:31;0.00;;;0.00;;
4186;SDS011;2107;52.306;10.484;2024-01-30T01:44:58;0.00;;;0.00;;
4186;SDS011;2107;52.306;10.484;2024-01-30T01:47:25;0.00;;;0.00;;
4186;SDS011;2107;52.306;10.484;2024-01-30T01:49:53;0.00;;;0.00;;
4186;SDS011;2107;52.306;10.484;2024-01-30T01:52:20;0.00;;;0.00;;
4186;SDS011;2107;52.306;10.484;2024-01-30T01:54:47;0.00;;;0.00;;
4186;SDS011;2107;52.306;10.484;2024-01-30T01:57:14;0.00;;;0.00;;
4186;SDS011;2107;52.306;10.484;2024-01-30T01:59:41;0.00;;;0.00;;
4186;SDS011;2107;52.306;10.484;2024-01-30T02:02:08;0.00;;;0.00;;
4186;SDS011;2107;52.306;10.484;2024-01-30T02:04:38;0.00;;;0.00;;
4186;SDS011;2107;52.306;10.484;2024-01-30T02:07:07;0.00;;;0.00;;
4186;SDS011;2107;52.306;10.484;2024-01-30T02:09:34;0.00;;;0.00;;
4186;SDS011;2107;52.306;10.484;2024-01-30T02:12:01;0.00;;;0.00;;
4186;SDS011;2107;52.306;10.484;2024-01-30T02:14:28;0.00;;;0.00;;
4186;SDS011;2107;52.306;10.484;2024-01-30T02:16:55;0.00;;;0.00;;
4186;SDS011;2107;52.306;10.484;2024-01-30T02:19:22;0.00;;;0.00;;
4186;SDS011;2107;52.306;10.484;2024-01-30T02:21:50;0.00;;;0.00;;
4186;SDS011;2107;52.306;10.484;2024-01-30T02:24:18;0.00;;;0.00;;
4186;SDS011;2107;52.306;10.484;2024-01-30T02:26:45;0.00;;;0.00;;
4186;SDS011;2107;52.306;10.484;2024-01-30T02:29:12;0.00;;;0.00;;
4186;SDS011;2107;52.306;10.484;2024-01-30T02:31:39;0.00;;;0.00;;
4186;SDS011;2107;52.306;10.484;2024-01-30T02:34:06;0.00;;;0.00;;
4186;SDS011;2107;52.306;10.484;2024-01-30T02:36:33;0.00;;;0.00;;
4186;SDS011;2107;52.306;10.484;2024-01-30T02:39:01;0.00;;;0.00;;
4186;SDS011;2107;52.306;10.484;2024-01-30T02:41:28;0.00;;;0.00;;
4186;SDS011;2107;52.306;10.484;2024-01-30T02:43:55;0.00;;;0.00;;
4186;SDS011;2107;52.306;10.484;2024-01-30T02:46:22;0.00;;;0.00;;
4186;SDS011;2107;52.306;10.484;2024-01-30T02:48:49;0.00;;;0.00;;
4186;SDS011;2107;52.306;10.484;2024-01-30T02:51:16;0.00;;;0.00;;
4186;SDS011;2107;52.306;10.484;2024-01-30T02:53:43;0.00;;;0.00;;
4186;SDS011;2107;52.306;10.484;2024-01-30T02:56:11;0.00;;;0.00;;
4186;SDS011;2107;52.306;10.484;2024-01-30T02:58:39;0.00;;;0.00;;
4186;SDS011;2107;52.306;10.484;2024-01-30T03:01:06;0.00;;;0.00;;
4186;SDS011;2107;52.306;10.484;2024-01-30T03:03:33;0.00;;;0.00;;
4186;SDS011;2107;52.306;10.484;2024-01-30T03:06:01;0.00;;;0.00;;
4186;SDS011;2107;52.306;10.484;2024-01-30T03:08:28;0.00;;;0.00;;
4186;SDS011;2107;52.306;10.484;2024-01-30T03:10:55;0.00;;;0.00;;
4186;SDS011;2107;52.306;10.484;2024-01-30T03:13:23;0.00;;;0.00;;
4186;SDS011;2107;52.306;10.484;2024-01-30T03:15:50;0.00;;;0.00;;
4186;SDS011;2107;52.306;10.484;2024-01-30T03:18:17;0.00;;;0.00;;
4186;SDS011;2107;52.306;10.484;2024-01-30T03:20:44;0.00;;;0.00;;
4186;SDS011;2107;52.306;10.484;2024-01-30T03:23:11;0.00;;;0.00;;
4186;SDS011;2107;52.306;10.484;2024-01-30T03:25:38;0.00;;;0.00;;
4186;SDS011;2107;52.306;10.484;2024-01-30T03:28:05;0.00;;;0.00;;
4186;SDS011;2107;52.306;10.484;2024-01-30T03:30:33;0.00;;;0.00;;
4186;SDS011;2107;52.306;10.484;2024-01-30T03:33:00;0.00;;;0.00;;
4186;SDS011;2107;52.306;10.484;2024-01-30T03:35:27;0.00;;;0.00;;
4186;SDS011;2107;52.306;10.484;2024-01-30T03:37:54;0.00;;;0.00;;
4186;SDS011;2107;52.306;10.484;2024-01-30T03:40:21;0.00;;;0.00;;
4186;SDS011;2107;52.306;10.484;2024-01-30T03:42:48;0.00;;;0.00;;
4186;SDS011;2107;52.306;10.484;2024-01-30T03:45:15;0.00;;;0.00;;
4186;SDS011;2107;52.306;10.484;2024-01-30T03:47:46;0.00;;;0.00;;
4186;SDS011;2107;52.306;10.484;2024-01-30T03:50:13;0.00;;;0.00;;
4186;SDS011;2107;52.306;10.484;2024-01-30T03:52:39;0.00;;;0.00;;
4186;SDS011;2107;52.306;10.484;2024-01-30T03:55:07;0.00;;;0.00;;
4186;SDS011;2107;52.306;10.484;2024-01-30T03:57:34;0.00;;;0.00;;
4186;SDS011;2107;52.306;10.484;2024-01-30T04:00:01;0.00;;;0.00;;
4186;SDS011;2107;52.306;10.484;2024-01-30T04:02:30;0.00;;;0.00;;
4186;SDS011;2107;52.306;10.484;2024-01-30T04:04:58;0.00;;;0.00;;
4186;SDS011;2107;52.306;10.484;2024-01-30T04:07:25;0.00;;;0.00;;
4186;SDS011;2107;52.306;10.484;2024-01-30T04:09:52;0.00;;;0.00;;
4186;SDS011;2107;52.306;10.484;2024-01-30T04:12:18;0.00;;;0.00;;
4186;SDS011;2107;52.306;10.484;2024-01-30T04:14:45;0.00;;;0.00;;
4186;SDS011;2107;52.306;10.484;2024-01-30T04:17:12;0.00;;;0.00;;
4186;SDS011;2107;52.306;10.484;2024-01-30T04:19:39;0.00;;;0.00;;
4186;SDS011;2107;52.306;10.484;2024-01-30T04:22:08;0.00;;;0.00;;
4186;SDS011;2107;52.306;10.484;2024-01-30T04:24:35;0.00;;;0.00;;
4186;SDS011;2107;52.306;10.484;2024-01-30T04:27:02;0.00;;;0.00;;
4186;SDS011;2107;52.306;10.484;2024-01-30T04:29:29;0.00;;;0.00;;
4186;SDS011;2107;52.306;10.484;2024-01-30T04:31:57;0.00;;;0.00;;
4186;SDS011;2107;52.306;10.484;2024-01-30T04:34:24;0.00;;;0.00;;
4186;SDS011;2107;52.306;10.484;2024-01-30T04:36:51;0.00;;;0.00;;
4186;SDS011;2107;52.306;10.484;2024-01-30T04:39:19;0.00;;;0.00;;
4186;SDS011;2107;52.306;10.484;2024-01-30T04:41:47;0.00;;;0.00;;
4186;SDS011;2107;52.306;10.484;2024-01-30T04:44:14;0.00;;;0.00;;
4186;SDS011;2107;52.306;10.484;2024-01-30T04:46:41;0.00;;;0.00;;
4186;SDS011;2107;52.306;10.484;2024-01-30T04:49:07;0.00;;;0.00;;
4186;SDS011;2107;52.306;10.484;2024-01-30T04:51:34;0.00;;;0.00;;
4186;SDS011;2107;52.306;10.484;2024-01-30T04:54:01;0.00;;;0.00;;
4186;SDS011;2107;52.306;10.484;2024-01-30T04:56:30;0.00;;;0.00;;
4186;SDS011;2107;52.306;10.484;2024-01-30T04:58:57;0.00;;;0.00;;
4186;SDS011;2107;52.306;10.484;2024-01-30T05:01:24;0.00;;;0.00;;
4186;SDS011;2107;52.306;10.484;2024-01-30T05:03:51;0.00;;;0.00;;
4186;SDS011;2107;52.306;10.484;2024-01-30T05:06:23;0.00;;;0.00;;
4186;SDS011;2107;52.306;10.484;2024-01-30T05:08:51;0.00;;;0.00;;
4186;SDS011;2107;52.306;10.484;2024-01-30T05:11:18;0.00;;;0.00;;
4186;SDS011;2107;52.306;10.484;2024-01-30T05:13:47;0.00;;;0.00;;
4186;SDS011;2107;52.306;10.484;2024-01-30T05:16:14;0.00;;;0.00;;
4186;SDS011;2107;52.306;10.484;2024-01-30T05:18:40;0.00;;;0.00;;
4186;SDS011;2107;52.306;10.484;2024-01-30T05:21:07;0.00;;;0.00;;
4186;SDS011;2107;52.306;10.484;2024-01-30T05:23:34;0.00;;;0.00;;
4186;SDS011;2107;52.306;10.484;2024-01-30T05:26:02;0.00;;;0.00;;
4186;SDS011;2107;52.306;10.484;2024-01-30T05:28:29;0.00;;;0.00;;
4186;SDS011;2107;52.306;10.484;2024-01-30T05:30:57;0.00;;;0.00;;
4186;SDS011;2107;52.306;10.484;2024-01-30T05:33:28;0.00;;;0.00;;
4186;SDS011;2107;52.306;10.484;2024-01-30T05:35:55;0.00;;;0.00;;
4186;SDS011;2107;52.306;10.484;2024-01-30T05:38:22;0.00;;;0.00;;
4186;SDS011;2107;52.306;10.484;2024-01-30T05:40:48;0.00;;;0.00;;
4186;SDS011;2107;52.306;10.484;2024-01-30T05:43:15;0.00;;;0.00;;
4186;SDS011;2107;52.306;10.484;2024-01-30T05:45:42;0.00;;;0.00;;
4186;SDS011;2107;52.306;10.484;2024-01-30T05:48:11;0.00;;;0.00;;
4186;SDS011;2107;52.306;10.484;2024-01-30T05:50:38;0.00;;;0.00;;
4186;SDS011;2107;52.306;10.484;2024-01-30T05:53:05;0.00;;;0.00;;
4186;SDS011;2107;52.306;10.484;2024-01-30T05:55:32;0.00;;;0.00;;
4186;SDS011;2107;52.306;10.484;2024-01-30T05:57:59;0.00;;;0.00;;
4186;SDS011;2107;52.306;10.484;2024-01-30T06:00:26;0.00;;;0.00;;
4186;SDS011;2107;52.306;10.484;2024-01-30T06:02:53;0.00;;;0.00;;
4186;SDS011;2107;52.306;10.484;2024-01-30T06:05:21;0.00;;;0.00;;
4186;SDS011;2107;52.306;10.484;2024-01-30T06:07:48;0.00;;;0.00;;
4186;SDS011;2107;52.306;10.484;2024-01-30T06:10:16;0.00;;;0.00;;
4186;SDS011;2107;52.306;10.484;2024-01-30T06:12:44;0.00;;;0.00;;
4186;SDS011;2107;52.306;10.484;2024-01-30T06:15:11;0.00;;;0.00;;
4186;SDS011;2107;52.306;10.484;2024-01-30T06:17:38;0.00;;;0.00;;
4186;SDS011;2107;52.306;10.484;2024-01-30T06:20:06;0.00;;;0.00;;
4186;SDS011;2107;52.306;10.484;2024-01-30T06:22:34;0.00;;;0.00;;
4186;SDS011;2107;52.306;10.484;2024-01-30T06:25:01;0.00;;;0.00;;
4186;SDS011;2107;52.306;10.484;2024-01-30T06:27:28;0.00;;;0.00;;
4186;SDS011;2107;52.306;10.484;2024-01-30T06:29:55;0.00;;;0.00;;
4186;SDS011;2107;52.306;10.484;2024-01-30T06:32:22;0.00;;;0.00;;
4186;SDS011;2107;52.306;10.484;2024-01-30T06:34:49;0.00;;;0.00;;
4186;SDS011;2107;52.306;10.484;2024-01-30T06:37:16;0.00;;;0.00;;
4186;SDS011;2107;52.306;10.484;2024-01-30T06:39:45;0.00;;;0.00;;
4186;SDS011;2107;52.306;10.484;2024-01-30T06:42:12;0.00;;;0.00;;
4186;SDS011;2107;52.306;10.484;2024-01-30T06:44:39;0.00;;;0.00;;
4186;SDS011;2107;52.306;10.484;2024-01-30T06:47:05;0.00;;;0.00;;
4186;SDS011;2107;52.306;10.484;2024-01-30T06:49:33;0.00;;;0.00;;
4186;SDS011;2107;52.306;10.484;2024-01-30T06:51:59;0.00;;;0.00;;
4186;SDS011;2107;52.306;10.484;2024-01-30T06:54:26;0.00;;;0.00;;
4186;SDS011;2107;52.306;10.484;2024-01-30T06:56:55;0.00;;;0.00;;
4186;SDS011;2107;52.306;10.484;2024-01-30T06:59:21;0.00;;;0.00;;
4186;SDS011;2107;52.306;10.484;2024-01-30T07:01:48;0.00;;;0.00;;
4186;SDS011;2107;52.306;10.484;2024-01-30T07:04:15;0.00;;;0.00;;
4186;SDS011;2107;52.306;10.484;2024-01-30T07:06:43;0.00;;;0.00;;
4186;SDS011;2107;52.306;10.484;2024-01-30T07:09:10;0.00;;;0.00;;
4186;SDS011;2107;52.306;10.484;2024-01-30T07:11:38;0.00;;;0.00;;
4186;SDS011;2107;52.306;10.484;2024-01-30T07:14:07;0.00;;;0.00;;
4186;SDS011;2107;52.306;10.484;2024-01-30T07:16:35;0.00;;;0.00;;
4186;SDS011;2107;52.306;10.484;2024-01-30T07:19:02;0.00;;;0.00;;
4186;SDS011;2107;52.306;10.484;2024-01-30T07:21:29;0.00;;;0.00;;
4186;SDS011;2107;52.306;10.484;2024-01-30T07:23:55;0.00;;;0.00;;
4186;SDS011;2107;52.306;10.484;2024-01-30T07:26:23;0.00;;;0.00;;
4186;SDS011;2107;52.306;10.484;2024-01-30T07:28:50;0.00;;;0.00;;
4186;SDS011;2107;52.306;10.484;2024-01-30T07:31:18;0.00;;;0.00;;
4186;SDS011;2107;52.306;10.484;2024-01-30T07:33:48;0.00;;;0.00;;
4186;SDS011;2107;52.306;10.484;2024-01-30T07:36:15;0.00;;;0.00;;
4186;SDS011;2107;52.306;10.484;2024-01-30T07:38:42;0.10;;;0.10;;
4186;SDS011;2107;52.306;10.484;2024-01-30T07:41:09;0.10;;;0.10;;
4186;SDS011;2107;52.306;10.484;2024-01-30T07:43:36;0.10;;;0.10;;
4186;SDS011;2107;52.306;10.484;2024-01-30T07:46:04;0.00;;;0.00;;
4186;SDS011;2107;52.306;10.484;2024-01-30T07:48:32;0.10;;;0.10;;
4186;SDS011;2107;52.306;10.484;2024-01-30T07:51:00;0.10;;;0.10;;
4186;SDS011;2107;52.306;10.484;2024-01-30T07:53:28;0.10;;;0.10;;
4186;SDS011;2107;52.306;10.484;2024-01-30T07:55:54;0.03;;;0.03;;
4186;SDS011;2107;52.306;10.484;2024-01-30T07:58:21;0.10;;;0.10;;
4186;SDS011;2107;52.306;10.484;2024-01-30T08:00:49;0.10;;;0.10;;
4186;SDS011;2107;52.306;10.484;2024-01-30T08:03:16;0.10;;;0.10;;
4186;SDS011;2107;52.306;10.484;2024-01-30T08:05:45;0.10;;;0.10;;
4186;SDS011;2107;52.306;10.484;2024-01-30T08:08:11;0.10;;;0.10;;
4186;SDS011;2107;52.306;10.484;2024-01-30T08:10:38;0.20;;;0.20;;
4186;SDS011;2107;52.306;10.484;2024-01-30T08:13:05;0.20;;;0.20;;
4186;SDS011;2107;52.306;10.484;2024-01-30T08:15:33;0.20;;;0.20;;
4186;SDS011;2107;52.306;10.484;2024-01-30T08:18:00;0.20;;;0.20;;
4186;SDS011;2107;52.306;10.484;2024-01-30T08:20:27;0.30;;;0.30;;
4186;SDS011;2107;52.306;10.484;2024-01-30T08:22:55;0.20;;;0.20;;
4186;SDS011;2107;52.306;10.484;2024-01-30T08:25:22;0.30;;;0.30;;
4186;SDS011;2107;52.306;10.484;2024-01-30T08:27:49;0.30;;;0.30;;
4186;SDS011;2107;52.306;10.484;2024-01-30T08:30:16;0.30;;;0.30;;
4186;SDS011;2107;52.306;10.484;2024-01-30T08:32:43;0.20;;;0.20;;
4186;SDS011;2107;52.306;10.484;2024-01-30T08:35:10;0.30;;;0.30;;
4186;SDS011;2107;52.306;10.484;2024-01-30T08:37:38;0.20;;;0.20;;
4186;SDS011;2107;52.306;10.484;2024-01-30T08:40:07;0.27;;;0.27;;
4186;SDS011;2107;52.306;10.484;2024-01-30T08:42:35;0.20;;;0.20;;
4186;SDS011;2107;52.306;10.484;2024-01-30T08:45:02;0.30;;;0.30;;
4186;SDS011;2107;52.306;10.484;2024-01-30T08:47:29;0.30;;;0.30;;
4186;SDS011;2107;52.306;10.484;2024-01-30T08:49:58;0.30;;;0.30;;
4186;SDS011;2107;52.306;10.484;2024-01-30T08:52:25;0.30;;;0.30;;
4186;SDS011;2107;52.306;10.484;2024-01-30T08:54:51;0.30;;;0.30;;
4186;SDS011;2107;52.306;10.484;2024-01-30T08:57:20;0.40;;;0.40;;
4186;SDS011;2107;52.306;10.484;2024-01-30T08:59:47;0.50;;;0.50;;
4186;SDS011;2107;52.306;10.484;2024-01-30T09:02:14;0.50;;;0.50;;
4186;SDS011;2107;52.306;10.484;2024-01-30T09:04:43;0.50;;;0.50;;
4186;SDS011;2107;52.306;10.484;2024-01-30T09:07:10;0.50;;;0.50;;
4186;SDS011;2107;52.306;10.484;2024-01-30T09:09:38;0.60;;;0.60;;
4186;SDS011;2107;52.306;10.484;2024-01-30T09:12:06;0.50;;;0.50;;
4186;SDS011;2107;52.306;10.484;2024-01-30T09:14:36;0.50;;;0.50;;
4186;SDS011;2107;52.306;10.484;2024-01-30T09:17:03;0.40;;;0.40;;
4186;SDS011;2107;52.306;10.484;2024-01-30T09:19:30;0.50;;;0.50;;
4186;SDS011;2107;52.306;10.484;2024-01-30T09:21:57;0.60;;;0.60;;
4186;SDS011;2107;52.306;10.484;2024-01-30T09:24:25;0.70;;;0.70;;
4186;SDS011;2107;52.306;10.484;2024-01-30T09:26:52;0.70;;;0.70;;
4186;SDS011;2107;52.306;10.484;2024-01-30T09:29:19;0.90;;;0.90;;
4186;SDS011;2107;52.306;10.484;2024-01-30T09:31:48;0.50;;;0.50;;
4186;SDS011;2107;52.306;10.484;2024-01-30T09:34:15;0.40;;;0.40;;
4186;SDS011;2107;52.306;10.484;2024-01-30T09:36:42;0.40;;;0.40;;
4186;SDS011;2107;52.306;10.484;2024-01-30T09:39:09;0.40;;;0.40;;
4186;SDS011;2107;52.306;10.484;2024-01-30T09:41:36;0.40;;;0.40;;
4186;SDS011;2107;52.306;10.484;2024-01-30T09:44:10;0.40;;;0.40;;
4186;SDS011;2107;52.306;10.484;2024-01-30T09:46:38;0.40;;;0.40;;
4186;SDS011;2107;52.306;10.484;2024-01-30T09:49:07;0.40;;;0.40;;
4186;SDS011;2107;52.306;10.484;2024-01-30T09:51:35;0.30;;;0.30;;
4186;SDS011;2107;52.306;10.484;2024-01-30T09:54:02;0.30;;;0.30;;
4186;SDS011;2107;52.306;10.484;2024-01-30T09:56:29;0.40;;;0.40;;
4186;SDS011;2107;52.306;10.484;2024-01-30T09:58:56;0.40;;;0.40;;
4186;SDS011;2107;52.306;10.484;2024-01-30T10:01:23;0.40;;;0.40;;
4186;SDS011;2107;52.306;10.484;2024-01-30T10:03:53;0.30;;;0.30;;
4186;SDS011;2107;52.306;10.484;2024-01-30T10:06:22;0.30;;;0.30;;
4186;SDS011;2107;52.306;10.484;2024-01-30T10:08:50;0.30;;;0.30;;
4186;SDS011;2107;52.306;10.484;2024-01-30T10:11:17;0.40;;;0.40;;
4186;SDS011;2107;52.306;10.484;2024-01-30T10:13:44;0.40;;;0.40;;
4186;SDS011;2107;52.306;10.484;2024-01-30T10:16:13;0.40;;;0.40;;
4186;SDS011;2107;52.306;10.484;2024-01-30T10:18:41;0.30;;;0.30;;
4186;SDS011;2107;52.306;10.484;2024-01-30T10:21:08;0.33;;;0.33;;
4186;SDS011;2107;52.306;10.484;2024-01-30T10:23:37;0.40;;;0.40;;
4186;SDS011;2107;52.306;10.484;2024-01-30T10:26:04;0.40;;;0.40;;
4186;SDS011;2107;52.306;10.484;2024-01-30T10:28:33;0.60;;;0.60;;
4186;SDS011;2107;52.306;10.484;2024-01-30T10:31:00;0.50;;;0.50;;
4186;SDS011;2107;52.306;10.484;2024-01-30T10:33:28;0.50;;;0.50;;
4186;SDS011;2107;52.306;10.484;2024-01-30T10:35:56;0.40;;;0.40;;
4186;SDS011;2107;52.306;10.484;2024-01-30T10:38:27;0.50;;;0.50;;
4186;SDS011;2107;52.306;10.484;2024-01-30T10:40:58;0.60;;;0.60;;
4186;SDS011;2107;52.306;10.484;2024-01-30T10:43:27;0.50;;;0.50;;
4186;SDS011;2107;52.306;10.484;2024-01-30T10:45:57;0.40;;;0.40;;
4186;SDS011;2107;52.306;10.484;2024-01-30T10:48:30;0.50;;;0.50;;
4186;SDS011;2107;52.306;10.484;2024-01-30T10:51:05;0.40;;;0.40;;
4186;SDS011;2107;52.306;10.484;2024-01-30T10:53:32;0.40;;;0.40;;
4186;SDS011;2107;52.306;10.484;2024-01-30T10:56:02;0.33;;;0.33;;
4186;SDS011;2107;52.306;10.484;2024-01-30T10:58:30;0.40;;;0.40;;
4186;SDS011;2107;52.306;10.484;2024-01-30T11:00:57;0.40;;;0.40;;
4186;SDS011;2107;52.306;10.484;2024-01-30T11:03:25;0.50;;;0.50;;
4186;SDS011;2107;52.306;10.484;2024-01-30T11:05:52;0.50;;;0.50;;
4186;SDS011;2107;52.306;10.484;2024-01-30T11:08:22;0.53;;;0.53;;
4186;SDS011;2107;52.306;10.484;2024-01-30T11:10:54;0.53;;;0.53;;
4186;SDS011;2107;52.306;10.484;2024-01-30T11:13:23;0.40;;;0.40;;
4186;SDS011;2107;52.306;10.484;2024-01-30T11:15:53;0.50;;;0.50;;
4186;SDS011;2107;52.306;10.484;2024-01-30T11:18:24;0.50;;;0.50;;
4186;SDS011;2107;52.306;10.484;2024-01-30T11:20:51;0.60;;;0.60;;
4186;SDS011;2107;52.306;10.484;2024-01-30T11:23:18;0.70;;;0.70;;
4186;SDS011;2107;52.306;10.484;2024-01-30T11:25:48;0.70;;;0.70;;
4186;SDS011;2107;52.306;10.484;2024-01-30T11:28:15;0.60;;;0.60;;
4186;SDS011;2107;52.306;10.484;2024-01-30T11:30:44;0.80;;;0.80;;
4186;SDS011;2107;52.306;10.484;2024-01-30T11:33:14;1.00;;;1.00;;
4186;SDS011;2107;52.306;10.484;2024-01-30T11:35:41;0.90;;;0.90;;
4186;SDS011;2107;52.306;10.484;2024-01-30T11:38:10;1.20;;;1.20;;
4186;SDS011;2107;52.306;10.484;2024-01-30T11:40:38;1.20;;;1.20;;
4186;SDS011;2107;52.306;10.484;2024-01-30T11:43:06;1.00;;;1.00;;
4186;SDS011;2107;52.306;10.484;2024-01-30T11:45:34;1.13;;;1.13;;
4186;SDS011;2107;52.306;10.484;2024-01-30T11:48:04;1.10;;;1.10;;
4186;SDS011;2107;52.306;10.484;2024-01-30T11:50:32;1.20;;;1.20;;
4186;SDS011;2107;52.306;10.484;2024-01-30T11:52:59;1.00;;;1.00;;
4186;SDS011;2107;52.306;10.484;2024-01-30T11:55:27;0.80;;;0.80;;
4186;SDS011;2107;52.306;10.484;2024-01-30T11:57:55;0.80;;;0.80;;
4186;SDS011;2107;52.306;10.484;2024-01-30T12:00:22;0.90;;;0.90;;
4186;SDS011;2107;52.306;10.484;2024-01-30T12:02:50;1.00;;;1.00;;
4186;SDS011;2107;52.306;10.484;2024-01-30T12:05:22;0.83;;;0.83;;
4186;SDS011;2107;52.306;10.484;2024-01-30T12:07:49;0.80;;;0.80;;
4186;SDS011;2107;52.306;10.484;2024-01-30T12:10:16;0.90;;;0.90;;
4186;SDS011;2107;52.306;10.484;2024-01-30T12:12:45;1.10;;;1.10;;
4186;SDS011;2107;52.306;10.484;2024-01-30T12:15:13;0.90;;;0.90;;
4186;SDS011;2107;52.306;10.484;2024-01-30T12:17:41;0.83;;;0.83;;
4186;SDS011;2107;52.306;10.484;2024-01-30T12:20:09;0.70;;;0.70;;
4186;SDS011;2107;52.306;10.484;2024-01-30T12:22:39;0.70;;;0.70;;
4186;SDS011;2107;52.306;10.484;2024-01-30T12:25:07;0.60;;;0.60;;
4186;SDS011;2107;52.306;10.484;2024-01-30T12:27:35;0.90;;;0.90;;
4186;SDS011;2107;52.306;10.484;2024-01-30T12:30:04;0.80;;;0.80;;
4186;SDS011;2107;52.306;10.484;2024-01-30T12:32:34;1.00;;;1.00;;
4186;SDS011;2107;52.306;10.484;2024-01-30T12:35:01;1.10;;;1.10;;
4186;SDS011;2107;52.306;10.484;2024-01-30T12:37:29;1.30;;;1.30;;
4186;SDS011;2107;52.306;10.484;2024-01-30T12:39:58;1.10;;;1.10;;
4186;SDS011;2107;52.306;10.484;2024-01-30T12:42:26;1.20;;;1.20;;
4186;SDS011;2107;52.306;10.484;2024-01-30T12:44:53;1.03;;;1.03;;
4186;SDS011;2107;52.306;10.484;2024-01-30T12:47:21;1.20;;;1.20;;
4186;SDS011;2107;52.306;10.484;2024-01-30T12:49:48;1.40;;;1.40;;
4186;SDS011;2107;52.306;10.484;2024-01-30T12:52:18;1.10;;;1.10;;
4186;SDS011;2107;52.306;10.484;2024-01-30T12:54:46;1.10;;;1.10;;
4186;SDS011;2107;52.306;10.484;2024-01-30T12:57:14;1.10;;;1.10;;
4186;SDS011;2107;52.306;10.484;2024-01-30T12:59:41;1.00;;;1.00;;
4186;SDS011;2107;52.306;10.484;2024-01-30T13:02:09;0.80;;;0.80;;
4186;SDS011;2107;52.306;10.484;2024-01-30T13:04:36;0.90;;;0.90;;
4186;SDS011;2107;52.306;10.484;2024-01-30T13:07:03;0.70;;;0.70;;
4186;SDS011;2107;52.306;10.484;2024-01-30T13:09:30;0.70;;;0.70;;
4186;SDS011;2107;52.306;10.484;2024-01-30T13:11:57;0.80;;;0.80;;
4186;SDS011;2107;52.306;10.484;2024-01-30T13:14:26;0.63;;;0.63;;
4186;SDS011;2107;52.306;10.484;2024-01-30T13:16:53;0.50;;;0.50;;
4186;SDS011;2107;52.306;10.484;2024-01-30T13:19:20;0.40;;;0.40;;
4186;SDS011;2107;52.306;10.484;2024-01-30T13:21:47;0.40;;;0.40;;
4186;SDS011;2107;52.306;10.484;2024-01-30T13:24:14;0.47;;;0.47;;
4186;SDS011;2107;52.306;10.484;2024-01-30T13:26:42;0.60;;;0.60;;
4186;SDS011;2107;52.306;10.484;2024-01-30T13:29:09;0.50;;;0.50;;
4186;SDS011;2107;52.306;10.484;2024-01-30T13:31:37;0.70;;;0.70;;
4186;SDS011;2107;52.306;10.484;2024-01-30T13:34:05;0.90;;;0.90;;
4186;SDS011;2107;52.306;10.484;2024-01-30T13:36:32;0.90;;;0.90;;
4186;SDS011;2107;52.306;10.484;2024-01-30T13:38:59;1.20;;;1.20;;
4186;SDS011;2107;52.306;10.484;2024-01-30T13:41:26;1.30;;;1.30;;
4186;SDS011;2107;52.306;10.484;2024-01-30T13:43:53;1.27;;;1.27;;
4186;SDS011;2107;52.306;10.484;2024-01-30T13:46:22;1.10;;;1.10;;
4186;SDS011;2107;52.306;10.484;2024-01-30T13:48:51;1.10;;;1.10;;
4186;SDS011;2107;52.306;10.484;2024-01-30T13:51:17;1.20;;;1.20;;
4186;SDS011;2107;52.306;10.484;2024-01-30T13:53:44;1.00;;;1.00;;
4186;SDS011;2107;52.306;10.484;2024-01-30T13:56:15;1.20;;;1.20;;
4186;SDS011;2107;52.306;10.484;2024-01-30T13:58:42;0.97;;;0.97;;
4186;SDS011;2107;52.306;10.484;2024-01-30T14:01:09;1.10;;;1.10;;
4186;SDS011;2107;52.306;10.484;2024-01-30T14:03:36;0.90;;;0.90;;
4186;SDS011;2107;52.306;10.484;2024-01-30T14:06:04;0.80;;;0.80;;
4186;SDS011;2107;52.306;10.484;2024-01-30T14:08:32;1.00;;;1.00;;
4186;SDS011;2107;52.306;10.484;2024-01-30T14:10:59;0.97;;;0.97;;
4186;SDS011;2107;52.306;10.484;2024-01-30T14:13:25;1.03;;;1.03;;
4186;SDS011;2107;52.306;10.484;2024-01-30T14:15:52;0.97;;;0.97;;
4186;SDS011;2107;52.306;10.484;2024-01-30T14:18:19;0.93;;;0.93;;
4186;SDS011;2107;52.306;10.484;2024-01-30T14:20:46;0.70;;;0.70;;
4186;SDS011;2107;52.306;10.484;2024-01-30T14:23:16;0.60;;;0.60;;
4186;SDS011;2107;52.306;10.484;2024-01-30T14:25:44;0.80;;;0.80;;
4186;SDS011;2107;52.306;10.484;2024-01-30T14:28:11;0.70;;;0.70;;
4186;SDS011;2107;52.306;10.484;2024-01-30T14:30:38;0.60;;;0.60;;
4186;SDS011;2107;52.306;10.484;2024-01-30T14:33:05;0.60;;;0.60;;
4186;SDS011;2107;52.306;10.484;2024-01-30T14:35:32;0.60;;;0.60;;
4186;SDS011;2107;52.306;10.484;2024-01-30T14:37:59;0.57;;;0.57;;
4186;SDS011;2107;52.306;10.484;2024-01-30T14:40:30;0.90;;;0.90;;
4186;SDS011;2107;52.306;10.484;2024-01-30T14:42:57;0.80;;;0.80;;
4186;SDS011;2107;52.306;10.484;2024-01-30T14:45:24;0.60;;;0.60;;
4186;SDS011;2107;52.306;10.484;2024-01-30T14:47:52;0.70;;;0.70;;
4186;SDS011;2107;52.306;10.484;2024-01-30T14:50:21;0.80;;;0.80;;
4186;SDS011;2107;52.306;10.484;2024-01-30T14:52:48;0.80;;;0.80;;
4186;SDS011;2107;52.306;10.484;2024-01-30T14:55:15;0.60;;;0.60;;
4186;SDS011;2107;52.306;10.484;2024-01-30T14:57:43;0.70;;;0.70;;
4186;SDS011;2107;52.306;10.484;2024-01-30T15:00:11;0.60;;;0.60;;
4186;SDS011;2107;52.306;10.484;2024-01-30T15:02:40;0.57;;;0.57;;